createdAt,value
2023-03-06T00:00:50.977Z,75.06
2023-03-06T00:03:17.932Z,74.97
2023-03-06T00:05:45.101Z,75.09
2023-03-06T00:08:12.082Z,75.38
2023-03-06T00:10:40.297Z,75.20
2023-03-06T00:13:15.952Z,75.42
2023-03-06T00:15:42.965Z,75.58
2023-03-06T00:18:09.870Z,75.49
2023-03-06T00:20:37.421Z,75.45
2023-03-06T00:23:04.364Z,75.47
2023-03-06T00:25:31.255Z,75.51
2023-03-06T00:27:58.146Z,75.60
2023-03-06T00:30:25.308Z,75.70
2023-03-06T00:32:52.889Z,75.75
2023-03-06T00:35:20.005Z,75.72
2023-03-06T00:37:47.009Z,75.95
2023-03-06T00:40:16.211Z,76.01
2023-03-06T00:42:43.183Z,75.96
2023-03-06T00:45:10.566Z,76.35
2023-03-06T00:47:37.722Z,76.33
2023-03-06T00:50:05.091Z,76.22
2023-03-06T00:52:32.100Z,76.52
2023-03-06T00:54:58.996Z,76.15
2023-03-06T00:57:25.966Z,76.19
2023-03-06T00:59:52.854Z,76.44
2023-03-06T01:02:22.698Z,76.17
2023-03-06T01:04:49.641Z,76.54
2023-03-06T01:07:16.559Z,76.67
2023-03-06T01:09:43.496Z,76.64
2023-03-06T01:12:10.430Z,76.47
2023-03-06T01:14:37.614Z,76.47
2023-03-06T01:17:04.521Z,76.57
2023-03-06T01:19:31.423Z,76.79
2023-03-06T01:21:58.323Z,76.51
2023-03-06T01:24:25.984Z,76.92
2023-03-06T01:26:52.933Z,76.83
2023-03-06T01:29:20.321Z,77.06
2023-03-06T01:31:47.512Z,77.11
2023-03-06T01:34:14.507Z,76.87
2023-03-06T01:36:41.483Z,77.04
2023-03-06T01:39:08.881Z,76.89
2023-03-06T01:41:35.781Z,77.02
2023-03-06T01:44:02.713Z,76.85
2023-03-06T01:46:32.304Z,76.78
2023-03-06T01:49:44.867Z,76.93
2023-03-06T01:52:16.007Z,76.81
2023-03-06T01:54:49.189Z,76.64
2023-03-06T01:57:50.148Z,77.03
2023-03-06T02:00:22.868Z,77.06
2023-03-06T02:02:59.108Z,77.19
2023-03-06T02:05:26.012Z,77.31
2023-03-06T02:07:52.963Z,76.84
2023-03-06T02:10:20.782Z,76.89
2023-03-06T02:12:47.785Z,77.23
2023-03-06T02:15:16.802Z,77.14
2023-03-06T02:17:45.064Z,76.85
2023-03-06T02:20:26.018Z,77.17
2023-03-06T02:23:01.545Z,77.27
2023-03-06T02:25:43.728Z,77.19
2023-03-06T02:28:13.623Z,77.39
2023-03-06T02:30:41.325Z,77.42
2023-03-06T02:33:08.837Z,77.19
2023-03-06T02:35:36.476Z,77.56
2023-03-06T02:38:08.211Z,77.34
2023-03-06T02:40:35.167Z,77.63
2023-03-06T02:43:02.236Z,77.33
2023-03-06T02:45:39.501Z,77.52
2023-03-06T02:48:06.864Z,77.83
2023-03-06T02:50:33.857Z,77.74
2023-03-06T02:53:00.809Z,77.87
2023-03-06T02:55:27.733Z,77.85
2023-03-06T02:57:54.632Z,77.90
2023-03-06T03:00:21.671Z,78.04
2023-03-06T03:02:48.858Z,78.19
2023-03-06T03:05:15.980Z,78.37
2023-03-06T03:07:42.932Z,78.26
2023-03-06T03:10:10.458Z,78.46
2023-03-06T03:12:37.631Z,78.63
2023-03-06T03:15:05.682Z,78.72
2023-03-06T03:17:32.593Z,78.66
2023-03-06T03:19:59.537Z,78.77
2023-03-06T03:22:26.443Z,78.69
2023-03-06T03:24:53.418Z,78.90
2023-03-06T03:27:20.349Z,78.95
2023-03-06T03:29:47.473Z,79.09
2023-03-06T03:32:14.627Z,79.45
2023-03-06T03:34:41.543Z,79.32
2023-03-06T03:37:09.173Z,79.33
2023-03-06T03:39:36.190Z,79.55
2023-03-06T03:42:03.560Z,79.56
2023-03-06T03:44:30.591Z,79.52
2023-03-06T03:46:57.496Z,79.60
2023-03-06T03:49:24.465Z,79.84
2023-03-06T03:51:51.469Z,79.90
2023-03-06T03:54:21.172Z,79.77
2023-03-06T03:56:48.082Z,80.11
2023-03-06T03:59:15.024Z,80.12
2023-03-06T04:01:41.970Z,80.00
2023-03-06T04:04:12.041Z,80.34
2023-03-06T04:06:39.500Z,80.30
2023-03-06T04:09:06.423Z,80.32
2023-03-06T04:11:33.387Z,80.29
2023-03-06T04:14:00.289Z,80.39
2023-03-06T04:16:27.187Z,80.42
2023-03-06T04:18:54.109Z,80.68
2023-03-06T04:21:21.007Z,80.79
2023-03-06T04:23:50.850Z,80.78
2023-03-06T04:26:17.782Z,80.96
2023-03-06T04:28:44.708Z,80.74
2023-03-06T04:31:12.815Z,80.96
2023-03-06T04:33:39.909Z,80.88
2023-03-06T04:36:06.978Z,81.26
2023-03-06T04:38:33.949Z,80.95
2023-03-06T04:41:00.872Z,81.08
2023-03-06T04:43:27.844Z,81.14
2023-03-06T06:04:47.585Z,80.63
2023-03-06T06:07:15.836Z,80.78
2023-03-06T06:09:45.396Z,80.82
2023-03-06T06:12:12.917Z,81.16
2023-03-06T06:14:39.937Z,80.88
2023-03-06T06:17:06.950Z,81.17
2023-03-06T06:19:33.973Z,80.94
2023-03-06T06:22:02.762Z,81.18
2023-03-06T06:24:30.059Z,81.19
2023-03-06T06:26:58.035Z,81.31
2023-03-06T06:29:25.798Z,81.20
2023-03-06T06:31:53.171Z,81.21
2023-03-06T06:34:20.206Z,81.03
2023-03-06T06:36:47.485Z,80.96
2023-03-06T06:39:16.292Z,80.96
2023-03-06T06:41:59.400Z,80.92
2023-03-06T06:44:29.459Z,81.18
2023-03-06T06:47:21.667Z,81.13
2023-03-06T06:49:44.097Z,81.16
2023-03-06T06:52:11.008Z,80.77
2023-03-06T06:54:37.905Z,81.01
2023-03-06T06:57:05.071Z,80.89
2023-03-06T06:59:32.092Z,80.89
2023-03-06T07:01:59.112Z,80.80
2023-03-06T07:04:26.059Z,80.87
2023-03-06T07:06:55.926Z,80.95
2023-03-06T07:09:23.176Z,81.02
2023-03-06T07:11:50.400Z,81.11
2023-03-06T07:14:17.352Z,80.94
2023-03-06T07:16:44.474Z,81.17
2023-03-06T07:19:14.651Z,81.07
2023-03-06T07:21:41.622Z,81.02
2023-03-06T07:24:08.553Z,81.02
2023-03-06T07:26:35.667Z,81.18
2023-03-06T07:29:03.770Z,81.09
2023-03-06T07:31:30.894Z,80.78
2023-03-06T07:33:57.930Z,80.87
2023-03-06T07:36:25.061Z,80.82
2023-03-06T07:38:52.093Z,80.76
2023-03-06T07:41:21.848Z,80.79
2023-03-06T07:43:49.815Z,80.98
2023-03-06T07:46:17.131Z,80.78
2023-03-06T07:48:45.179Z,80.97
2023-03-06T07:51:15.408Z,80.95
2023-03-06T07:53:42.751Z,80.88
2023-03-06T07:56:11.273Z,80.84
2023-03-06T07:58:40.569Z,80.86
2023-03-06T08:01:10.413Z,80.69
2023-03-06T08:03:37.800Z,80.85
2023-03-06T08:06:09.374Z,80.76
2023-03-06T08:08:37.663Z,80.80
2023-03-06T08:11:04.956Z,80.71
2023-03-06T08:13:31.978Z,80.38
2023-03-06T08:16:00.281Z,80.43
2023-03-06T08:18:28.063Z,79.89
2023-03-06T08:21:05.056Z,80.09
2023-03-06T08:23:32.428Z,79.88
2023-03-06T08:26:00.177Z,79.88
2023-03-06T08:28:27.267Z,79.51
2023-03-06T08:30:54.976Z,79.32
2023-03-06T08:33:23.106Z,79.15
2023-03-06T08:35:50.364Z,79.02
2023-03-06T08:38:17.535Z,78.36
2023-03-06T08:40:45.132Z,78.04
2023-03-06T08:43:14.786Z,77.88
2023-03-06T08:45:42.006Z,77.88
2023-03-06T08:48:09.251Z,77.78
2023-03-06T08:50:36.296Z,77.46
2023-03-06T08:53:03.323Z,77.26
2023-03-06T08:55:30.297Z,77.22
2023-03-06T08:57:58.631Z,76.56
2023-03-06T09:00:25.615Z,76.69
2023-03-06T09:02:52.663Z,76.40
2023-03-06T09:05:19.619Z,76.26
2023-03-06T09:07:46.564Z,75.98
2023-03-06T09:10:16.281Z,75.67
2023-03-06T09:12:50.095Z,75.61
2023-03-06T09:15:19.954Z,75.58
2023-03-06T09:17:47.806Z,75.17
2023-03-06T09:20:15.520Z,75.29
2023-03-06T09:22:42.730Z,74.95
2023-03-06T09:25:13.668Z,74.67
2023-03-06T09:27:41.496Z,74.83
2023-03-06T09:30:09.560Z,74.51
2023-03-06T09:32:36.866Z,74.31
2023-03-06T09:35:03.987Z,74.33
2023-03-06T09:37:31.071Z,73.99
2023-03-06T09:39:58.112Z,73.94
2023-03-06T09:42:25.638Z,73.34
2023-03-06T09:44:56.578Z,73.15
2023-03-06T09:47:46.328Z,72.87
2023-03-06T09:50:29.628Z,72.92
2023-03-06T09:53:29.533Z,72.59
2023-03-06T09:56:21.702Z,72.59
2023-03-06T09:59:28.483Z,72.39
2023-03-06T10:02:24.297Z,71.99
2023-03-06T10:04:59.749Z,71.79
2023-03-06T10:07:51.090Z,71.01
2023-03-06T10:10:24.952Z,71.04
2023-03-06T10:13:06.754Z,70.68
2023-03-06T10:15:37.386Z,70.72
2023-03-06T10:18:05.020Z,70.40
2023-03-06T10:20:50.100Z,70.32
2023-03-06T10:23:44.579Z,69.88
2023-03-06T10:26:28.028Z,70.03
2023-03-06T10:29:13.050Z,69.32
2023-03-06T10:31:45.296Z,69.09
2023-03-06T10:34:24.485Z,68.63
2023-03-06T10:36:51.575Z,68.58
2023-03-06T10:39:21.551Z,68.48
2023-03-06T10:41:49.038Z,67.99
2023-03-06T10:44:16.075Z,67.81
2023-03-06T10:46:45.397Z,67.46
2023-03-06T10:49:15.160Z,67.22
2023-03-06T10:51:55.705Z,67.26
2023-03-06T10:54:22.586Z,67.15
2023-03-06T10:56:49.514Z,67.35
2023-03-06T10:59:20.472Z,67.36
2023-03-06T11:01:49.252Z,67.21
2023-03-06T11:04:35.941Z,67.15
2023-03-06T11:07:16.397Z,66.91
2023-03-06T11:10:04.477Z,66.79
2023-03-06T11:12:42.772Z,66.54
2023-03-06T11:15:18.672Z,66.35
2023-03-06T11:18:08.529Z,66.43
2023-03-06T11:20:52.012Z,66.10
2023-03-06T11:23:45.233Z,66.23
2023-03-06T11:26:18.153Z,66.03
2023-03-06T11:28:49.001Z,65.82
2023-03-06T11:31:27.132Z,65.75
2023-03-06T11:34:13.947Z,65.89
2023-03-06T11:36:54.711Z,65.85
2023-03-06T11:39:42.159Z,65.60
2023-03-06T11:42:29.428Z,64.88
2023-03-06T11:45:17.652Z,65.04
2023-03-06T11:47:49.316Z,64.94
2023-03-06T11:50:20.837Z,64.81
2023-03-06T11:52:56.155Z,64.43
2023-03-06T11:55:35.715Z,64.41
2023-03-06T11:58:36.888Z,64.53
2023-03-06T12:01:19.002Z,64.55
2023-03-06T12:03:45.824Z,64.25
2023-03-06T12:06:21.801Z,64.07
2023-03-06T12:08:54.689Z,64.16
2023-03-06T12:11:24.996Z,64.06
2023-03-06T12:13:57.160Z,63.87
2023-03-06T12:16:58.589Z,63.21
2023-03-06T12:20:06.786Z,63.44
2023-03-06T12:23:02.418Z,63.43
2023-03-06T12:25:56.519Z,63.11
2023-03-06T12:28:47.071Z,62.37
2023-03-06T12:31:47.554Z,62.68
2023-03-06T12:34:45.476Z,62.59
2023-03-06T12:37:25.362Z,62.47
2023-03-06T12:40:15.950Z,62.25
2023-03-06T12:42:58.442Z,62.15
2023-03-06T12:45:35.514Z,62.27
2023-03-06T12:48:02.632Z,62.40
2023-03-06T12:50:37.052Z,62.24
2023-03-06T12:53:31.399Z,62.30
2023-03-06T12:55:59.270Z,62.26
2023-03-06T12:58:29.370Z,62.53
2023-03-06T13:01:03.572Z,62.52
2023-03-06T13:04:05.163Z,62.75
2023-03-06T13:06:50.359Z,62.70
2023-03-06T13:09:31.524Z,62.40
2023-03-06T13:12:16.768Z,62.55
2023-03-06T13:14:53.926Z,62.40
2023-03-06T13:17:24.335Z,62.53
2023-03-06T13:20:13.872Z,62.71
2023-03-06T13:22:41.694Z,62.65
2023-03-06T13:25:17.683Z,62.42
2023-03-06T13:27:45.892Z,62.34
2023-03-06T13:30:46.789Z,62.36
2023-03-06T13:33:22.744Z,62.28
2023-03-06T13:35:57.283Z,62.11
2023-03-06T13:38:44.359Z,61.79
2023-03-06T13:41:23.603Z,61.79
2023-03-06T13:43:54.553Z,62.03
2023-03-06T13:46:45.262Z,61.77
2023-03-06T13:49:18.281Z,61.87
2023-03-06T13:51:54.272Z,61.70
2023-03-06T13:54:44.229Z,61.80
2023-03-06T13:57:39.111Z,61.87
2023-03-06T14:00:27.629Z,62.35
2023-03-06T14:03:00.354Z,62.21
2023-03-06T14:05:47.782Z,62.29
2023-03-06T14:08:23.084Z,62.40
2023-03-06T14:11:02.255Z,62.40
2023-03-06T14:13:45.528Z,62.52
2023-03-06T14:16:34.900Z,62.68
2023-03-06T14:19:15.660Z,62.98
2023-03-06T14:21:56.227Z,62.81
2023-03-06T14:24:38.520Z,63.09
2023-03-06T14:27:05.591Z,63.47
2023-03-06T14:29:33.260Z,62.91
2023-03-06T14:32:01.064Z,63.24
2023-03-06T14:34:37.325Z,63.27
2023-03-06T14:37:05.734Z,63.27
2023-03-06T14:39:40.786Z,63.38
2023-03-06T14:42:40.125Z,63.35
2023-03-06T14:45:18.874Z,63.63
2023-03-06T14:47:53.290Z,64.30
2023-03-06T14:50:21.567Z,65.19
2023-03-06T14:52:49.946Z,65.81
2023-03-06T14:55:22.057Z,66.85
2023-03-06T14:57:51.160Z,67.63
2023-03-06T15:00:21.225Z,68.17
2023-03-06T15:02:48.231Z,68.10
2023-03-06T15:05:29.089Z,68.40
2023-03-06T15:08:01.736Z,68.92
2023-03-06T15:10:34.146Z,69.03
2023-03-06T15:13:25.004Z,69.21
2023-03-06T15:16:15.102Z,69.60
2023-03-06T15:19:02.726Z,69.47
2023-03-06T15:21:38.350Z,69.66
2023-03-06T15:24:32.672Z,69.87
2023-03-06T15:27:02.340Z,69.83
2023-03-06T15:29:29.263Z,70.04
2023-03-06T15:32:15.229Z,70.29
2023-03-06T15:34:44.110Z,70.17
2023-03-06T15:37:27.826Z,70.72
2023-03-06T15:40:13.471Z,70.70
2023-03-06T15:42:40.608Z,71.00
2023-03-06T15:45:19.208Z,71.05
2023-03-06T15:47:46.961Z,71.04
2023-03-06T15:50:19.284Z,71.36
2023-03-06T15:52:46.558Z,71.45
2023-03-06T15:55:14.473Z,71.71
2023-03-06T15:57:55.765Z,71.80
2023-03-06T16:00:41.035Z,72.06
2023-03-06T16:03:09.687Z,72.17
2023-03-06T16:05:36.848Z,72.39
2023-03-06T16:08:04.723Z,72.51
2023-03-06T16:10:33.082Z,72.65
2023-03-06T16:13:06.386Z,72.91
2023-03-06T16:15:38.291Z,72.99
2023-03-06T16:18:06.502Z,73.06
2023-03-06T16:20:33.634Z,73.40
2023-03-06T16:23:00.604Z,73.27
2023-03-06T16:25:28.097Z,73.33
2023-03-06T16:27:59.575Z,73.60
2023-03-06T16:30:30.530Z,73.47
2023-03-06T16:32:57.783Z,73.34
2023-03-06T16:35:24.819Z,73.61
2023-03-06T16:37:51.840Z,73.62
2023-03-06T16:40:26.415Z,73.68
2023-03-06T16:42:54.824Z,73.63
2023-03-06T16:45:23.086Z,73.57
2023-03-06T16:47:50.409Z,73.51
2023-03-06T16:50:27.437Z,73.57
2023-03-06T16:52:55.261Z,73.55
2023-03-06T16:55:22.510Z,73.75
2023-03-06T16:57:49.680Z,73.65
2023-03-06T17:00:18.639Z,73.77
2023-03-06T17:02:48.255Z,73.65
2023-03-06T17:05:15.199Z,73.72
2023-03-06T17:07:42.196Z,73.83
2023-03-06T17:10:11.411Z,73.68
2023-03-06T17:12:38.399Z,73.97
2023-03-06T17:15:07.111Z,74.00
2023-03-06T17:17:34.249Z,73.88
2023-03-06T17:20:01.522Z,73.92
2023-03-06T17:22:28.451Z,73.92
2023-03-06T17:24:55.375Z,74.11
2023-03-06T17:27:22.887Z,74.10
2023-03-06T17:29:49.868Z,73.97
2023-03-06T17:32:16.837Z,74.26
2023-03-06T17:34:44.406Z,74.16
2023-03-06T17:37:11.320Z,73.96
2023-03-06T17:39:38.962Z,74.23
2023-03-06T17:42:06.925Z,74.08
2023-03-06T17:44:34.467Z,74.53
2023-03-06T17:47:02.152Z,74.60
2023-03-06T17:49:29.053Z,74.72
2023-03-06T17:52:04.530Z,74.70
2023-03-06T17:54:33.128Z,74.31
2023-03-06T17:57:03.452Z,74.76
2023-03-06T17:59:31.125Z,74.81
2023-03-06T18:01:59.070Z,75.07
2023-03-06T18:04:26.710Z,74.98
2023-03-06T18:06:53.682Z,74.89
2023-03-06T18:09:20.635Z,75.18
2023-03-06T18:11:47.580Z,75.40
2023-03-06T18:14:14.635Z,75.27
2023-03-06T18:16:41.616Z,75.39
2023-03-06T18:19:10.953Z,75.38
2023-03-06T18:21:39.397Z,75.52
2023-03-06T18:24:06.761Z,75.67
2023-03-06T18:26:33.693Z,76.00
2023-03-06T18:29:03.551Z,76.15
2023-03-06T18:31:34.490Z,76.18
2023-03-06T18:34:11.954Z,76.13
2023-03-06T18:36:39.477Z,76.36
2023-03-06T18:39:08.597Z,76.46
2023-03-06T18:41:35.920Z,76.56
2023-03-06T18:44:02.829Z,76.63
2023-03-06T18:46:31.809Z,76.52
2023-03-06T18:48:58.866Z,77.05
2023-03-06T18:51:25.861Z,76.95
2023-03-06T18:53:52.867Z,77.07
2023-03-06T18:56:20.963Z,77.19
2023-03-06T18:58:48.428Z,77.01
2023-03-06T19:01:15.371Z,77.36
2023-03-06T19:03:43.777Z,77.43
2023-03-06T19:06:12.676Z,77.59
2023-03-06T19:08:40.058Z,77.61
2023-03-06T19:11:08.773Z,77.60
2023-03-06T19:13:35.681Z,77.40
2023-03-06T19:16:02.567Z,77.35
2023-03-06T19:18:29.814Z,77.64
2023-03-06T19:21:11.139Z,77.73
2023-03-06T19:23:38.117Z,77.67
2023-03-06T19:26:05.496Z,78.03
2023-03-06T19:28:32.463Z,77.94
2023-03-06T19:30:59.798Z,78.09
2023-03-06T19:33:26.789Z,78.19
2023-03-06T19:35:53.711Z,78.17
2023-03-06T19:38:20.810Z,78.14
2023-03-06T19:40:51.114Z,78.53
2023-03-06T19:43:18.032Z,78.35
2023-03-06T19:45:45.065Z,78.50
2023-03-06T19:48:12.753Z,78.41
2023-03-06T19:50:40.677Z,78.89
2023-03-06T19:53:07.938Z,78.54
2023-03-06T19:55:34.909Z,78.70
2023-03-06T19:58:01.931Z,78.90
2023-03-06T20:00:28.847Z,78.75
2023-03-06T20:02:56.586Z,78.84
2023-03-06T20:05:23.735Z,78.94
2023-03-06T20:07:50.940Z,79.04
2023-03-06T20:10:18.002Z,78.99
2023-03-06T20:12:44.963Z,79.04
2023-03-06T20:15:11.982Z,79.42
2023-03-06T20:17:41.584Z,79.23
2023-03-06T20:20:09.628Z,79.18
2023-03-06T20:22:36.791Z,79.55
2023-03-06T20:25:04.072Z,79.36
2023-03-06T20:27:30.979Z,79.42
2023-03-06T20:29:57.924Z,79.59
2023-03-06T20:32:24.903Z,79.72
2023-03-06T20:34:51.867Z,79.78
2023-03-06T20:37:18.832Z,79.78
2023-03-06T20:39:45.914Z,79.91
2023-03-06T20:42:13.276Z,79.63
2023-03-06T20:44:40.197Z,79.67
2023-03-06T20:47:07.666Z,80.10
2023-03-06T20:49:34.620Z,79.88
2023-03-06T20:52:01.528Z,79.88
2023-03-06T20:54:28.520Z,79.97
2023-03-06T20:56:55.502Z,80.12
2023-03-06T20:59:23.793Z,80.15
2023-03-06T21:01:50.867Z,80.34
2023-03-06T21:04:17.803Z,80.46
2023-03-06T21:06:46.837Z,80.32
2023-03-06T21:09:16.109Z,80.32
2023-03-06T21:11:43.211Z,80.53
2023-03-06T21:14:11.687Z,80.72
2023-03-06T21:16:38.564Z,80.69
2023-03-06T21:19:05.709Z,80.96
2023-03-06T21:21:34.660Z,80.95
2023-03-06T21:24:02.032Z,80.97
2023-03-06T21:26:30.096Z,81.06
2023-03-06T21:28:58.906Z,80.83
2023-03-06T21:31:27.107Z,81.13
2023-03-06T21:33:54.218Z,81.13
2023-03-06T21:36:21.943Z,81.04
2023-03-06T21:38:52.462Z,81.03
2023-03-06T21:41:24.166Z,81.37
2023-03-06T21:44:02.082Z,81.39
2023-03-06T21:46:29.216Z,81.59
2023-03-06T21:48:56.569Z,81.54
2023-03-06T21:51:24.206Z,81.65
2023-03-06T21:53:51.514Z,81.76
2023-03-06T21:56:19.877Z,81.80
2023-03-06T21:58:47.131Z,81.97
2023-03-06T22:01:17.745Z,81.96
2023-03-06T22:03:44.928Z,82.10
2023-03-06T22:06:17.193Z,81.98
2023-03-06T22:08:47.409Z,81.82
2023-03-06T22:11:16.646Z,82.09
2023-03-06T22:13:44.463Z,81.93
2023-03-06T22:16:11.729Z,82.15
2023-03-06T22:18:39.016Z,82.23
2023-03-06T22:21:10.244Z,82.08
2023-03-06T22:23:37.150Z,82.20
2023-03-06T22:26:12.914Z,81.99
2023-03-06T22:28:40.455Z,82.13
2023-03-06T22:31:08.602Z,82.22
2023-03-06T22:33:35.829Z,82.17
2023-03-06T22:36:09.111Z,82.46
2023-03-06T22:38:38.063Z,82.26
2023-03-06T22:41:05.768Z,82.36
2023-03-06T22:43:33.437Z,82.65
2023-03-06T22:46:02.194Z,82.63
2023-03-06T22:48:29.416Z,82.72
2023-03-06T22:50:56.488Z,82.82
2023-03-06T22:53:23.396Z,82.67
2023-03-06T22:55:50.286Z,82.67
2023-03-06T22:58:17.181Z,82.80
2023-03-06T23:00:44.559Z,82.67
2023-03-06T23:03:11.440Z,83.08
2023-03-06T23:05:41.664Z,83.09
2023-03-06T23:08:08.801Z,83.25
2023-03-06T23:10:39.480Z,82.88
2023-03-06T23:13:06.683Z,83.13
2023-03-06T23:15:35.580Z,83.03
2023-03-06T23:18:02.606Z,83.00
2023-03-06T23:20:29.491Z,83.26
2023-03-06T23:22:56.394Z,83.30
2023-03-06T23:25:23.293Z,83.23
2023-03-06T23:27:50.202Z,83.02
2023-03-06T23:30:17.459Z,83.49
2023-03-06T23:32:46.026Z,83.17
2023-03-06T23:35:14.174Z,83.23
2023-03-06T23:37:41.060Z,83.43
2023-03-06T23:40:09.398Z,83.36
2023-03-06T23:42:36.702Z,83.35
2023-03-06T23:45:03.768Z,83.38
2023-03-06T23:47:34.065Z,83.67
2023-03-06T23:50:01.071Z,83.34
2023-03-06T23:52:28.021Z,83.32
2023-03-06T23:54:54.918Z,83.50
2023-03-06T23:57:21.858Z,83.71
2023-03-06T23:59:48.803Z,83.73
